Oakland, CA (94607)

5:40 AM PDT on August 30, 2014 (GMT -0700)
Downtown Oakland | Change Station
CLOSE
Current Station
Personal Weather Station
Location: Oakland, CA
Elevation: 16 ft
Nearby Weather Stations

Elev 16 ft 37.81 °N, 122.27 °W | Updated 4 minutes ago

Mostly Cloudy
Mostly Cloudy
62.0 °F
Feels Like 62.0 °F
N
1.0
Wind Variable Wind from South
Gusts 1.0 mph

Today
High -- | Low -- °F
--% Chance of Precip.
Yesterday
High -- | Low -- °F
Precip. -- in
6:37 AM 7:41 PM
Waxing Crescent, 21% visible
Pressure 29.89 in
Visibility 10.0 miles
Clouds Few 1000 ft
Mostly Cloudy 20000 ft
Dew Point 59 °F
Humidity 91%
Rainfall 0.00 in
Snow Depth Not available.
UV 0 out of 12
Pollen 7.70 out of 12
Air Quality Not available.
Flu Activity Not available.
METAR KOAK 301153Z 00000KT 10SM MIFG FEW010 BKN200 17/14 A2989 RMK AO2 SLP120 T01670144 10189 20156 58007

More Conditions Fewer Conditions

Pressure 29.89 in
Visibility 10.0 miles
Clouds Few 1000 ft
Mostly Cloudy 20000 ft
Dew Point 59 °F
Humidity 91%
Rainfall 0.00 in
Snow Depth Not available.
UV 0 out of 12
Pollen 7.70 out of 12
Air Quality Not available.
Flu Activity Not available.
METAR KOAK 301153Z 00000KT 10SM MIFG FEW010 BKN200 17/14 A2989 RMK AO2 SLP120 T01670144 10189 20156 58007

More Conditions Fewer Conditions

10-Day Weather Forecast

Almanac

Astronomy

Aug. 30, 2014 Rise Set
Actual Time 6:37 AM PDT 7:41 PM PDT
Civil Twilight 6:10 AM PDT 8:08 PM PDT
Nautical Twilight 5:38 AM PDT 8:40 PM PDT
Astronomical Twilight 5:05 AM PDT 9:13 PM PDT
Moon 11:24 AM PDT 10:25 PM PDT
Length of Visible Light 13h 57m
Length of Day
13h 03m
Tomorrow will be 2m 19s shorter.
Waxing Crescent, 21% of the Moon is Illuminated
Today
Waxing Crescent
Sep 2
First Quarter
Sep 8
Full
Sep 15
Last Quarter
Sep 24
New

Today's Extremes

State Highs State Lows

Community

WunderPhotos

Upload Photos

1,748,500 photos uploaded!

WunderBlogs® & News

By Dr. Jeff Masters
Director of Meteorology, Weather Underground
By Kari Strenfel
Meteorologist, Weather Underground
By Christopher C. Burt
Weather Historian, Weather Underground
August 30, 2014
August 30, 2014
August 30, 2014

Nearby

Air Quality

  Air Quality AQ Index Pollutant
Yesterday Good
PM2.5
Yesterday Good
OZONE
Saturday Good
PM2.5
Sunday Good
PM2.5
Monday Good
PM2.5
Tuesday Good
PM2.5
Wednesday Good
PM2.5

Snow Depth

Station Depth Elevation
Blue Lakes 0 in 8000 ft
Forestdale Creek 0 in 8029 ft
Echo Peak 1 in 7800 ft
Rubicon #2 0 in 7500 ft
Hagan's Meadow 1 in 8000 ft

Earthquake Activity

City Distance Mag. Time & Date
Ridgemark, California 93 miles 3.4 4:32 PM PDT
2014-08-29
The Geysers, California 75 miles 2.7 2:53 PM PDT
2014-08-29
Ridgemark, California 93 miles 3.0 2:44 PM PDT
2014-08-29
Minimum magnitude displayed is 2.5.

Coastal Water Temperatures

Place Temperature
No Stations Reporting

Nearby Weather Stations